sensor_id;sensor_type;location;lat;lon;timestamp;P1;durP1;ratioP1;P2;durP2;ratioP2
7813;SDS011;3952;48.364;16.022;2023-12-20T00:00:34;6.30;;;5.23;;
7813;SDS011;3952;48.364;16.022;2023-12-20T00:03:02;9.03;;;5.23;;
7813;SDS011;3952;48.364;16.022;2023-12-20T00:05:30;4.90;;;4.40;;
7813;SDS011;3952;48.364;16.022;2023-12-20T00:08:00;5.33;;;4.80;;
7813;SDS011;3952;48.364;16.022;2023-12-20T00:10:27;5.47;;;4.97;;
7813;SDS011;3952;48.364;16.022;2023-12-20T00:12:54;4.63;;;4.13;;
7813;SDS011;3952;48.364;16.022;2023-12-20T00:15:22;5.70;;;4.20;;
7813;SDS011;3952;48.364;16.022;2023-12-20T00:17:49;4.90;;;4.57;;
7813;SDS011;3952;48.364;16.022;2023-12-20T00:20:16;6.43;;;5.47;;
7813;SDS011;3952;48.364;16.022;2023-12-20T00:22:44;6.73;;;4.90;;
7813;SDS011;3952;48.364;16.022;2023-12-20T00:25:12;6.57;;;5.20;;
7813;SDS011;3952;48.364;16.022;2023-12-20T00:27:40;8.23;;;5.70;;
7813;SDS011;3952;48.364;16.022;2023-12-20T00:30:08;4.90;;;4.50;;
7813;SDS011;3952;48.364;16.022;2023-12-20T00:32:36;4.17;;;3.87;;
7813;SDS011;3952;48.364;16.022;2023-12-20T00:35:04;4.53;;;4.13;;
7813;SDS011;3952;48.364;16.022;2023-12-20T00:37:31;4.67;;;4.27;;
7813;SDS011;3952;48.364;16.022;2023-12-20T00:39:58;8.83;;;5.93;;
7813;SDS011;3952;48.364;16.022;2023-12-20T00:42:27;5.47;;;4.80;;
7813;SDS011;3952;48.364;16.022;2023-12-20T00:44:54;5.33;;;4.83;;
7813;SDS011;3952;48.364;16.022;2023-12-20T00:47:22;5.00;;;4.60;;
7813;SDS011;3952;48.364;16.022;2023-12-20T00:49:49;5.70;;;4.43;;
7813;SDS011;3952;48.364;16.022;2023-12-20T00:52:16;4.77;;;4.37;;
7813;SDS011;3952;48.364;16.022;2023-12-20T00:54:44;4.97;;;4.17;;
7813;SDS011;3952;48.364;16.022;2023-12-20T00:57:12;4.53;;;4.13;;
7813;SDS011;3952;48.364;16.022;2023-12-20T00:59:41;4.60;;;4.30;;
7813;SDS011;3952;48.364;16.022;2023-12-20T01:02:08;5.17;;;4.77;;
7813;SDS011;3952;48.364;16.022;2023-12-20T01:04:35;4.67;;;4.37;;
7813;SDS011;3952;48.364;16.022;2023-12-20T01:07:02;4.70;;;4.30;;
7813;SDS011;3952;48.364;16.022;2023-12-20T01:09:30;4.73;;;4.40;;
7813;SDS011;3952;48.364;16.022;2023-12-20T01:11:57;4.03;;;3.70;;
7813;SDS011;3952;48.364;16.022;2023-12-20T01:14:24;4.33;;;4.03;;
7813;SDS011;3952;48.364;16.022;2023-12-20T01:16:53;4.57;;;4.17;;
7813;SDS011;3952;48.364;16.022;2023-12-20T01:19:20;5.00;;;4.67;;
7813;SDS011;3952;48.364;16.022;2023-12-20T01:21:49;5.50;;;4.53;;
7813;SDS011;3952;48.364;16.022;2023-12-20T01:24:16;5.23;;;4.83;;
7813;SDS011;3952;48.364;16.022;2023-12-20T01:26:43;5.10;;;4.70;;
7813;SDS011;3952;48.364;16.022;2023-12-20T01:29:11;5.27;;;4.77;;
7813;SDS011;3952;48.364;16.022;2023-12-20T01:31:39;4.80;;;4.50;;
7813;SDS011;3952;48.364;16.022;2023-12-20T01:34:08;5.43;;;5.00;;
7813;SDS011;3952;48.364;16.022;2023-12-20T01:36:35;5.33;;;4.83;;
7813;SDS011;3952;48.364;16.022;2023-12-20T01:39:01;4.13;;;3.83;;
7813;SDS011;3952;48.364;16.022;2023-12-20T01:41:29;4.83;;;4.43;;
7813;SDS011;3952;48.364;16.022;2023-12-20T01:43:56;4.93;;;4.60;;
7813;SDS011;3952;48.364;16.022;2023-12-20T01:46:23;4.80;;;4.43;;
7813;SDS011;3952;48.364;16.022;2023-12-20T01:48:52;4.60;;;4.20;;
7813;SDS011;3952;48.364;16.022;2023-12-20T01:51:21;4.80;;;4.17;;
7813;SDS011;3952;48.364;16.022;2023-12-20T01:53:49;3.83;;;3.53;;
7813;SDS011;3952;48.364;16.022;2023-12-20T01:56:16;5.07;;;3.57;;
7813;SDS011;3952;48.364;16.022;2023-12-20T01:58:44;3.40;;;3.20;;
7813;SDS011;3952;48.364;16.022;2023-12-20T02:01:12;3.27;;;3.03;;
7813;SDS011;3952;48.364;16.022;2023-12-20T02:03:40;3.70;;;3.40;;
7813;SDS011;3952;48.364;16.022;2023-12-20T02:06:08;3.53;;;3.33;;
7813;SDS011;3952;48.364;16.022;2023-12-20T02:08:37;4.87;;;3.57;;
7813;SDS011;3952;48.364;16.022;2023-12-20T02:11:05;4.17;;;3.70;;
7813;SDS011;3952;48.364;16.022;2023-12-20T02:13:33;3.80;;;3.50;;
7813;SDS011;3952;48.364;16.022;2023-12-20T02:16:00;4.27;;;3.90;;
7813;SDS011;3952;48.364;16.022;2023-12-20T02:18:27;4.27;;;3.60;;
7813;SDS011;3952;48.364;16.022;2023-12-20T02:20:55;4.57;;;4.10;;
7813;SDS011;3952;48.364;16.022;2023-12-20T02:23:23;3.53;;;3.33;;
7813;SDS011;3952;48.364;16.022;2023-12-20T02:25:51;3.80;;;3.50;;
7813;SDS011;3952;48.364;16.022;2023-12-20T02:28:19;3.77;;;3.50;;
7813;SDS011;3952;48.364;16.022;2023-12-20T02:30:48;3.63;;;3.43;;
7813;SDS011;3952;48.364;16.022;2023-12-20T02:33:16;3.70;;;3.40;;
7813;SDS011;3952;48.364;16.022;2023-12-20T02:35:43;3.93;;;3.73;;
7813;SDS011;3952;48.364;16.022;2023-12-20T02:38:10;4.23;;;3.87;;
7813;SDS011;3952;48.364;16.022;2023-12-20T02:40:39;4.60;;;4.20;;
7813;SDS011;3952;48.364;16.022;2023-12-20T02:43:06;5.30;;;4.13;;
7813;SDS011;3952;48.364;16.022;2023-12-20T02:45:34;3.63;;;3.43;;
7813;SDS011;3952;48.364;16.022;2023-12-20T02:48:01;4.27;;;3.97;;
7813;SDS011;3952;48.364;16.022;2023-12-20T02:50:29;4.20;;;3.90;;
7813;SDS011;3952;48.364;16.022;2023-12-20T02:52:56;4.47;;;4.07;;
7813;SDS011;3952;48.364;16.022;2023-12-20T02:55:23;4.03;;;3.73;;
7813;SDS011;3952;48.364;16.022;2023-12-20T02:57:52;4.17;;;3.77;;
7813;SDS011;3952;48.364;16.022;2023-12-20T03:00:19;4.70;;;4.40;;
7813;SDS011;3952;48.364;16.022;2023-12-20T03:02:46;4.57;;;4.27;;
7813;SDS011;3952;48.364;16.022;2023-12-20T03:05:14;5.93;;;4.70;;
7813;SDS011;3952;48.364;16.022;2023-12-20T03:07:41;5.47;;;5.00;;
7813;SDS011;3952;48.364;16.022;2023-12-20T03:10:08;5.10;;;4.67;;
7813;SDS011;3952;48.364;16.022;2023-12-20T03:12:36;4.50;;;4.20;;
7813;SDS011;3952;48.364;16.022;2023-12-20T03:15:05;4.73;;;4.40;;
7813;SDS011;3952;48.364;16.022;2023-12-20T03:17:33;5.00;;;4.60;;
7813;SDS011;3952;48.364;16.022;2023-12-20T03:20:00;5.27;;;4.77;;
7813;SDS011;3952;48.364;16.022;2023-12-20T03:22:28;4.67;;;4.37;;
7813;SDS011;3952;48.364;16.022;2023-12-20T03:24:55;5.07;;;4.70;;
7813;SDS011;3952;48.364;16.022;2023-12-20T03:27:22;5.43;;;4.93;;
7813;SDS011;3952;48.364;16.022;2023-12-20T03:29:50;5.00;;;4.60;;
7813;SDS011;3952;48.364;16.022;2023-12-20T03:32:18;4.97;;;4.60;;
7813;SDS011;3952;48.364;16.022;2023-12-20T03:34:46;5.20;;;4.80;;
7813;SDS011;3952;48.364;16.022;2023-12-20T03:37:13;5.13;;;4.73;;
7813;SDS011;3952;48.364;16.022;2023-12-20T03:39:40;5.00;;;4.50;;
7813;SDS011;3952;48.364;16.022;2023-12-20T03:42:08;4.90;;;4.50;;
7813;SDS011;3952;48.364;16.022;2023-12-20T03:44:38;4.87;;;4.40;;
7813;SDS011;3952;48.364;16.022;2023-12-20T03:47:05;4.07;;;3.77;;
7813;SDS011;3952;48.364;16.022;2023-12-20T03:49:34;4.03;;;3.73;;
7813;SDS011;3952;48.364;16.022;2023-12-20T03:52:02;3.70;;;3.50;;
7813;SDS011;3952;48.364;16.022;2023-12-20T03:54:30;4.17;;;3.87;;
7813;SDS011;3952;48.364;16.022;2023-12-20T03:56:57;3.83;;;3.63;;
7813;SDS011;3952;48.364;16.022;2023-12-20T03:59:24;4.17;;;3.97;;
7813;SDS011;3952;48.364;16.022;2023-12-20T04:01:52;3.93;;;3.63;;
7813;SDS011;3952;48.364;16.022;2023-12-20T04:04:19;4.00;;;3.70;;
7813;SDS011;3952;48.364;16.022;2023-12-20T04:06:48;4.37;;;4.00;;
7813;SDS011;3952;48.364;16.022;2023-12-20T04:09:15;5.40;;;4.00;;
7813;SDS011;3952;48.364;16.022;2023-12-20T04:11:42;3.67;;;3.47;;
7813;SDS011;3952;48.364;16.022;2023-12-20T04:14:09;3.73;;;3.50;;
7813;SDS011;3952;48.364;16.022;2023-12-20T04:16:37;4.90;;;3.27;;
7813;SDS011;3952;48.364;16.022;2023-12-20T04:19:05;6.03;;;3.80;;
7813;SDS011;3952;48.364;16.022;2023-12-20T04:21:32;3.60;;;3.40;;
7813;SDS011;3952;48.364;16.022;2023-12-20T04:24:01;3.70;;;3.40;;
7813;SDS011;3952;48.364;16.022;2023-12-20T04:26:28;4.03;;;3.73;;
7813;SDS011;3952;48.364;16.022;2023-12-20T04:28:55;4.17;;;3.80;;
7813;SDS011;3952;48.364;16.022;2023-12-20T04:31:23;4.50;;;4.20;;
7813;SDS011;3952;48.364;16.022;2023-12-20T04:33:50;4.10;;;3.80;;
7813;SDS011;3952;48.364;16.022;2023-12-20T04:36:17;4.10;;;3.80;;
7813;SDS011;3952;48.364;16.022;2023-12-20T04:38:44;5.37;;;4.37;;
7813;SDS011;3952;48.364;16.022;2023-12-20T04:41:13;4.60;;;4.23;;
7813;SDS011;3952;48.364;16.022;2023-12-20T04:43:41;4.50;;;4.20;;
7813;SDS011;3952;48.364;16.022;2023-12-20T04:46:08;3.93;;;3.70;;
7813;SDS011;3952;48.364;16.022;2023-12-20T04:48:36;4.33;;;4.03;;
7813;SDS011;3952;48.364;16.022;2023-12-20T04:51:03;5.17;;;4.77;;
7813;SDS011;3952;48.364;16.022;2023-12-20T04:53:31;4.63;;;4.33;;
7813;SDS011;3952;48.364;16.022;2023-12-20T04:55:58;5.47;;;5.07;;
7813;SDS011;3952;48.364;16.022;2023-12-20T04:58:27;6.53;;;5.50;;
7813;SDS011;3952;48.364;16.022;2023-12-20T05:00:54;6.43;;;4.87;;
7813;SDS011;3952;48.364;16.022;2023-12-20T05:03:22;5.60;;;5.20;;
7813;SDS011;3952;48.364;16.022;2023-12-20T05:05:49;5.03;;;4.63;;
7813;SDS011;3952;48.364;16.022;2023-12-20T05:08:16;4.93;;;4.63;;
7813;SDS011;3952;48.364;16.022;2023-12-20T05:10:43;5.07;;;4.67;;
7813;SDS011;3952;48.364;16.022;2023-12-20T05:13:11;4.47;;;4.17;;
7813;SDS011;3952;48.364;16.022;2023-12-20T05:15:40;4.53;;;4.23;;
7813;SDS011;3952;48.364;16.022;2023-12-20T05:18:07;4.63;;;4.23;;
7813;SDS011;3952;48.364;16.022;2023-12-20T05:20:34;6.80;;;4.90;;
7813;SDS011;3952;48.364;16.022;2023-12-20T05:23:02;4.73;;;4.43;;
7813;SDS011;3952;48.364;16.022;2023-12-20T05:25:29;4.67;;;4.37;;
7813;SDS011;3952;48.364;16.022;2023-12-20T05:27:57;5.20;;;4.80;;
7813;SDS011;3952;48.364;16.022;2023-12-20T05:30:24;5.00;;;4.53;;
7813;SDS011;3952;48.364;16.022;2023-12-20T05:32:53;4.33;;;4.03;;
7813;SDS011;3952;48.364;16.022;2023-12-20T05:35:20;4.70;;;4.30;;
7813;SDS011;3952;48.364;16.022;2023-12-20T05:37:48;4.80;;;4.50;;
7813;SDS011;3952;48.364;16.022;2023-12-20T05:40:16;4.60;;;4.30;;
7813;SDS011;3952;48.364;16.022;2023-12-20T05:42:43;4.53;;;4.23;;
7813;SDS011;3952;48.364;16.022;2023-12-20T05:45:10;4.40;;;4.10;;
7813;SDS011;3952;48.364;16.022;2023-12-20T05:47:38;4.40;;;4.10;;
7813;SDS011;3952;48.364;16.022;2023-12-20T05:50:07;4.90;;;4.50;;
7813;SDS011;3952;48.364;16.022;2023-12-20T05:52:34;4.70;;;4.30;;
7813;SDS011;3952;48.364;16.022;2023-12-20T05:55:02;4.77;;;4.37;;
7813;SDS011;3952;48.364;16.022;2023-12-20T05:57:29;4.87;;;4.40;;
7813;SDS011;3952;48.364;16.022;2023-12-20T05:59:56;5.40;;;4.90;;
7813;SDS011;3952;48.364;16.022;2023-12-20T06:02:24;5.30;;;4.80;;
7813;SDS011;3952;48.364;16.022;2023-12-20T06:04:51;5.37;;;4.40;;
7813;SDS011;3952;48.364;16.022;2023-12-20T06:07:20;5.50;;;5.00;;
7813;SDS011;3952;48.364;16.022;2023-12-20T06:09:47;5.33;;;4.70;;
7813;SDS011;3952;48.364;16.022;2023-12-20T06:12:14;5.63;;;5.13;;
7813;SDS011;3952;48.364;16.022;2023-12-20T06:14:41;5.20;;;4.70;;
7813;SDS011;3952;48.364;16.022;2023-12-20T06:17:09;5.10;;;4.60;;
7813;SDS011;3952;48.364;16.022;2023-12-20T06:19:36;4.70;;;4.40;;
7813;SDS011;3952;48.364;16.022;2023-12-20T06:22:03;5.30;;;4.90;;
7813;SDS011;3952;48.364;16.022;2023-12-20T06:24:32;4.70;;;4.40;;
7813;SDS011;3952;48.364;16.022;2023-12-20T06:26:59;7.03;;;4.87;;
7813;SDS011;3952;48.364;16.022;2023-12-20T06:29:27;5.17;;;4.77;;
7813;SDS011;3952;48.364;16.022;2023-12-20T06:31:56;4.77;;;4.40;;
7813;SDS011;3952;48.364;16.022;2023-12-20T06:34:23;5.37;;;4.70;;
7813;SDS011;3952;48.364;16.022;2023-12-20T06:36:50;4.97;;;4.57;;
7813;SDS011;3952;48.364;16.022;2023-12-20T06:39:17;4.77;;;4.37;;
7813;SDS011;3952;48.364;16.022;2023-12-20T06:41:46;4.80;;;4.40;;
7813;SDS011;3952;48.364;16.022;2023-12-20T06:44:13;4.30;;;4.00;;
7813;SDS011;3952;48.364;16.022;2023-12-20T06:46:41;4.20;;;3.90;;
7813;SDS011;3952;48.364;16.022;2023-12-20T06:49:08;3.80;;;3.60;;
7813;SDS011;3952;48.364;16.022;2023-12-20T06:51:35;3.60;;;3.40;;
7813;SDS011;3952;48.364;16.022;2023-12-20T06:54:03;4.73;;;3.27;;
7813;SDS011;3952;48.364;16.022;2023-12-20T06:56:30;4.13;;;3.10;;
7813;SDS011;3952;48.364;16.022;2023-12-20T06:58:59;3.73;;;3.27;;
7813;SDS011;3952;48.364;16.022;2023-12-20T07:01:26;3.27;;;3.07;;
7813;SDS011;3952;48.364;16.022;2023-12-20T07:03:53;3.97;;;3.70;;
7813;SDS011;3952;48.364;16.022;2023-12-20T07:06:20;3.93;;;3.60;;
7813;SDS011;3952;48.364;16.022;2023-12-20T07:08:48;4.90;;;4.60;;
7813;SDS011;3952;48.364;16.022;2023-12-20T07:11:15;5.13;;;4.73;;
7813;SDS011;3952;48.364;16.022;2023-12-20T07:13:42;6.60;;;5.30;;
7813;SDS011;3952;48.364;16.022;2023-12-20T07:16:11;5.53;;;5.00;;
7813;SDS011;3952;48.364;16.022;2023-12-20T07:18:39;6.40;;;5.83;;
7813;SDS011;3952;48.364;16.022;2023-12-20T07:21:06;5.40;;;5.00;;
7813;SDS011;3952;48.364;16.022;2023-12-20T07:23:34;5.63;;;5.23;;
7813;SDS011;3952;48.364;16.022;2023-12-20T07:26:01;5.60;;;5.20;;
7813;SDS011;3952;48.364;16.022;2023-12-20T07:28:29;5.93;;;5.47;;
7813;SDS011;3952;48.364;16.022;2023-12-20T07:30:56;5.37;;;4.87;;
7813;SDS011;3952;48.364;16.022;2023-12-20T07:33:25;5.47;;;5.07;;
7813;SDS011;3952;48.364;16.022;2023-12-20T07:35:52;5.90;;;5.50;;
7813;SDS011;3952;48.364;16.022;2023-12-20T07:38:20;5.57;;;5.17;;
7813;SDS011;3952;48.364;16.022;2023-12-20T07:40:47;6.13;;;5.63;;
7813;SDS011;3952;48.364;16.022;2023-12-20T07:43:14;6.30;;;5.70;;
7813;SDS011;3952;48.364;16.022;2023-12-20T07:45:41;8.80;;;5.43;;
7813;SDS011;3952;48.364;16.022;2023-12-20T07:48:09;5.50;;;5.00;;
7813;SDS011;3952;48.364;16.022;2023-12-20T07:50:37;8.00;;;5.20;;
7813;SDS011;3952;48.364;16.022;2023-12-20T07:53:04;4.83;;;4.53;;
7813;SDS011;3952;48.364;16.022;2023-12-20T07:55:32;5.50;;;5.10;;
7813;SDS011;3952;48.364;16.022;2023-12-20T07:58:00;5.10;;;4.70;;
7813;SDS011;3952;48.364;16.022;2023-12-20T08:00:27;4.83;;;4.43;;
7813;SDS011;3952;48.364;16.022;2023-12-20T08:02:55;4.63;;;4.33;;
7813;SDS011;3952;48.364;16.022;2023-12-20T08:05:22;5.20;;;4.80;;
7813;SDS011;3952;48.364;16.022;2023-12-20T08:07:51;4.80;;;4.40;;
7813;SDS011;3952;48.364;16.022;2023-12-20T08:10:19;4.70;;;4.30;;
7813;SDS011;3952;48.364;16.022;2023-12-20T08:12:46;5.40;;;4.93;;
7813;SDS011;3952;48.364;16.022;2023-12-20T08:15:13;4.50;;;4.07;;
7813;SDS011;3952;48.364;16.022;2023-12-20T08:17:41;4.30;;;3.90;;
7813;SDS011;3952;48.364;16.022;2023-12-20T08:20:08;4.20;;;3.90;;
7813;SDS011;3952;48.364;16.022;2023-12-20T08:22:36;4.10;;;3.70;;
7813;SDS011;3952;48.364;16.022;2023-12-20T08:25:05;5.17;;;4.10;;
7813;SDS011;3952;48.364;16.022;2023-12-20T08:27:33;4.23;;;3.53;;
7813;SDS011;3952;48.364;16.022;2023-12-20T08:30:03;5.27;;;3.17;;
7813;SDS011;3952;48.364;16.022;2023-12-20T08:32:31;2.90;;;2.70;;
7813;SDS011;3952;48.364;16.022;2023-12-20T08:34:58;3.23;;;2.87;;
7813;SDS011;3952;48.364;16.022;2023-12-20T08:37:26;2.63;;;2.43;;
7813;SDS011;3952;48.364;16.022;2023-12-20T08:39:53;2.83;;;2.63;;
7813;SDS011;3952;48.364;16.022;2023-12-20T08:42:22;3.10;;;2.90;;
7813;SDS011;3952;48.364;16.022;2023-12-20T08:44:49;2.93;;;2.70;;
7813;SDS011;3952;48.364;16.022;2023-12-20T08:47:17;2.20;;;2.00;;
7813;SDS011;3952;48.364;16.022;2023-12-20T08:49:45;2.47;;;2.37;;
7813;SDS011;3952;48.364;16.022;2023-12-20T08:52:12;3.07;;;2.97;;
7813;SDS011;3952;48.364;16.022;2023-12-20T08:54:39;4.73;;;2.60;;
7813;SDS011;3952;48.364;16.022;2023-12-20T08:57:07;3.60;;;3.30;;
7813;SDS011;3952;48.364;16.022;2023-12-20T08:59:35;3.33;;;2.83;;
7813;SDS011;3952;48.364;16.022;2023-12-20T09:02:03;3.40;;;3.10;;
7813;SDS011;3952;48.364;16.022;2023-12-20T09:04:30;3.30;;;2.87;;
7813;SDS011;3952;48.364;16.022;2023-12-20T09:06:59;3.10;;;2.80;;
7813;SDS011;3952;48.364;16.022;2023-12-20T09:09:27;3.20;;;2.60;;
7813;SDS011;3952;48.364;16.022;2023-12-20T09:11:54;2.73;;;2.60;;
7813;SDS011;3952;48.364;16.022;2023-12-20T09:14:21;2.73;;;2.53;;
7813;SDS011;3952;48.364;16.022;2023-12-20T09:16:50;2.80;;;2.60;;
7813;SDS011;3952;48.364;16.022;2023-12-20T09:19:21;2.50;;;2.40;;
7813;SDS011;3952;48.364;16.022;2023-12-20T09:21:48;2.27;;;2.17;;
7813;SDS011;3952;48.364;16.022;2023-12-20T09:24:15;3.10;;;2.90;;
7813;SDS011;3952;48.364;16.022;2023-12-20T09:26:42;2.90;;;2.70;;
7813;SDS011;3952;48.364;16.022;2023-12-20T09:29:10;2.40;;;2.30;;
7813;SDS011;3952;48.364;16.022;2023-12-20T09:31:40;3.20;;;3.00;;
7813;SDS011;3952;48.364;16.022;2023-12-20T09:34:10;2.97;;;2.87;;
7813;SDS011;3952;48.364;16.022;2023-12-20T09:36:37;2.83;;;2.63;;
7813;SDS011;3952;48.364;16.022;2023-12-20T09:39:11;2.77;;;2.67;;
7813;SDS011;3952;48.364;16.022;2023-12-20T09:41:40;2.60;;;2.43;;
7813;SDS011;3952;48.364;16.022;2023-12-20T09:44:09;2.63;;;2.53;;
7813;SDS011;3952;48.364;16.022;2023-12-20T09:46:41;2.83;;;2.73;;
7813;SDS011;3952;48.364;16.022;2023-12-20T09:49:12;2.50;;;2.30;;
7813;SDS011;3952;48.364;16.022;2023-12-20T09:51:40;2.20;;;2.10;;
7813;SDS011;3952;48.364;16.022;2023-12-20T09:54:08;2.50;;;2.30;;
7813;SDS011;3952;48.364;16.022;2023-12-20T09:56:37;3.97;;;2.10;;
7813;SDS011;3952;48.364;16.022;2023-12-20T09:59:04;2.13;;;2.03;;
7813;SDS011;3952;48.364;16.022;2023-12-20T10:01:31;2.00;;;1.90;;
7813;SDS011;3952;48.364;16.022;2023-12-20T10:04:01;2.10;;;2.00;;
7813;SDS011;3952;48.364;16.022;2023-12-20T10:06:35;4.33;;;2.23;;
7813;SDS011;3952;48.364;16.022;2023-12-20T10:09:03;2.27;;;2.00;;
7813;SDS011;3952;48.364;16.022;2023-12-20T10:11:30;2.37;;;2.17;;
7813;SDS011;3952;48.364;16.022;2023-12-20T10:13:59;2.60;;;2.40;;
7813;SDS011;3952;48.364;16.022;2023-12-20T10:16:27;2.30;;;2.20;;
7813;SDS011;3952;48.364;16.022;2023-12-20T10:18:55;4.33;;;2.50;;
7813;SDS011;3952;48.364;16.022;2023-12-20T10:21:22;2.17;;;2.07;;
7813;SDS011;3952;48.364;16.022;2023-12-20T10:23:52;2.60;;;2.40;;
7813;SDS011;3952;48.364;16.022;2023-12-20T10:26:20;2.20;;;2.10;;
7813;SDS011;3952;48.364;16.022;2023-12-20T10:28:50;2.40;;;2.30;;
7813;SDS011;3952;48.364;16.022;2023-12-20T10:31:27;2.00;;;1.90;;
7813;SDS011;3952;48.364;16.022;2023-12-20T10:33:57;2.07;;;1.97;;
7813;SDS011;3952;48.364;16.022;2023-12-20T10:36:25;2.60;;;2.40;;
7813;SDS011;3952;48.364;16.022;2023-12-20T10:38:55;2.60;;;2.40;;
7813;SDS011;3952;48.364;16.022;2023-12-20T10:41:24;2.00;;;1.90;;
7813;SDS011;3952;48.364;16.022;2023-12-20T10:43:55;1.97;;;1.87;;
7813;SDS011;3952;48.364;16.022;2023-12-20T10:46:24;2.00;;;1.90;;
7813;SDS011;3952;48.364;16.022;2023-12-20T10:48:54;2.40;;;2.30;;
7813;SDS011;3952;48.364;16.022;2023-12-20T10:51:22;1.47;;;1.40;;
7813;SDS011;3952;48.364;16.022;2023-12-20T10:53:51;2.03;;;1.83;;
7813;SDS011;3952;48.364;16.022;2023-12-20T10:56:21;1.77;;;1.67;;
7813;SDS011;3952;48.364;16.022;2023-12-20T10:58:48;1.83;;;1.73;;
7813;SDS011;3952;48.364;16.022;2023-12-20T11:01:16;1.90;;;1.80;;
7813;SDS011;3952;48.364;16.022;2023-12-20T11:03:48;1.90;;;1.80;;
7813;SDS011;3952;48.364;16.022;2023-12-20T11:06:22;3.97;;;1.70;;
7813;SDS011;3952;48.364;16.022;2023-12-20T11:08:59;1.90;;;1.80;;
7813;SDS011;3952;48.364;16.022;2023-12-20T11:11:37;2.10;;;2.00;;
7813;SDS011;3952;48.364;16.022;2023-12-20T11:14:15;2.47;;;2.27;;
7813;SDS011;3952;48.364;16.022;2023-12-20T11:16:47;2.20;;;2.10;;
7813;SDS011;3952;48.364;16.022;2023-12-20T11:19:14;2.20;;;2.10;;
7813;SDS011;3952;48.364;16.022;2023-12-20T11:21:43;2.30;;;2.20;;
7813;SDS011;3952;48.364;16.022;2023-12-20T11:24:12;2.07;;;2.00;;
7813;SDS011;3952;48.364;16.022;2023-12-20T11:26:41;2.27;;;2.17;;
7813;SDS011;3952;48.364;16.022;2023-12-20T11:29:31;2.50;;;2.40;;
7813;SDS011;3952;48.364;16.022;2023-12-20T11:32:01;2.60;;;2.40;;
7813;SDS011;3952;48.364;16.022;2023-12-20T11:34:31;2.70;;;2.60;;
7813;SDS011;3952;48.364;16.022;2023-12-20T11:36:59;2.30;;;2.20;;
7813;SDS011;3952;48.364;16.022;2023-12-20T11:39:29;3.57;;;2.73;;
7813;SDS011;3952;48.364;16.022;2023-12-20T11:41:59;2.80;;;2.70;;
7813;SDS011;3952;48.364;16.022;2023-12-20T11:44:31;2.80;;;2.70;;
7813;SDS011;3952;48.364;16.022;2023-12-20T11:46:59;2.70;;;2.60;;
7813;SDS011;3952;48.364;16.022;2023-12-20T11:49:26;2.53;;;2.43;;
7813;SDS011;3952;48.364;16.022;2023-12-20T11:51:54;2.40;;;2.30;;
7813;SDS011;3952;48.364;16.022;2023-12-20T11:54:22;2.50;;;2.30;;
7813;SDS011;3952;48.364;16.022;2023-12-20T11:56:49;2.50;;;2.30;;
7813;SDS011;3952;48.364;16.022;2023-12-20T11:59:18;2.30;;;2.20;;
7813;SDS011;3952;48.364;16.022;2023-12-20T12:01:48;2.70;;;2.60;;
7813;SDS011;3952;48.364;16.022;2023-12-20T12:04:16;2.70;;;2.50;;
7813;SDS011;3952;48.364;16.022;2023-12-20T12:06:43;2.83;;;2.63;;
7813;SDS011;3952;48.364;16.022;2023-12-20T12:09:12;2.63;;;2.53;;
7813;SDS011;3952;48.364;16.022;2023-12-20T12:11:40;2.87;;;2.77;;
7813;SDS011;3952;48.364;16.022;2023-12-20T12:14:07;2.87;;;2.77;;
7813;SDS011;3952;48.364;16.022;2023-12-20T12:16:36;2.93;;;2.83;;
7813;SDS011;3952;48.364;16.022;2023-12-20T12:19:04;3.10;;;2.90;;
7813;SDS011;3952;48.364;16.022;2023-12-20T12:21:31;2.70;;;2.60;;
7813;SDS011;3952;48.364;16.022;2023-12-20T12:24:06;2.80;;;2.70;;
7813;SDS011;3952;48.364;16.022;2023-12-20T12:26:34;2.80;;;2.70;;
7813;SDS011;3952;48.364;16.022;2023-12-20T12:29:01;2.47;;;2.37;;
7813;SDS011;3952;48.364;16.022;2023-12-20T12:31:28;2.60;;;2.50;;
7813;SDS011;3952;48.364;16.022;2023-12-20T12:33:58;2.37;;;2.27;;
7813;SDS011;3952;48.364;16.022;2023-12-20T12:36:25;2.43;;;2.33;;
7813;SDS011;3952;48.364;16.022;2023-12-20T12:38:52;2.10;;;2.00;;
7813;SDS011;3952;48.364;16.022;2023-12-20T12:41:19;2.47;;;2.37;;
7813;SDS011;3952;48.364;16.022;2023-12-20T12:43:47;2.40;;;2.20;;
7813;SDS011;3952;48.364;16.022;2023-12-20T12:46:14;2.47;;;2.37;;
7813;SDS011;3952;48.364;16.022;2023-12-20T12:48:41;2.40;;;2.30;;
7813;SDS011;3952;48.364;16.022;2023-12-20T12:51:10;2.60;;;2.50;;
7813;SDS011;3952;48.364;16.022;2023-12-20T12:53:39;2.43;;;2.30;;
7813;SDS011;3952;48.364;16.022;2023-12-20T12:56:06;2.40;;;2.30;;
7813;SDS011;3952;48.364;16.022;2023-12-20T12:58:34;2.30;;;2.20;;
7813;SDS011;3952;48.364;16.022;2023-12-20T13:01:01;4.83;;;2.40;;
7813;SDS011;3952;48.364;16.022;2023-12-20T13:03:28;2.17;;;2.07;;
7813;SDS011;3952;48.364;16.022;2023-12-20T13:05:56;2.60;;;2.50;;
7813;SDS011;3952;48.364;16.022;2023-12-20T13:08:25;1.90;;;1.87;;
7813;SDS011;3952;48.364;16.022;2023-12-20T13:10:52;1.83;;;1.73;;
7813;SDS011;3952;48.364;16.022;2023-12-20T13:13:20;1.93;;;1.83;;
7813;SDS011;3952;48.364;16.022;2023-12-20T13:15:48;2.13;;;1.80;;
7813;SDS011;3952;48.364;16.022;2023-12-20T13:18:20;2.07;;;1.97;;
7813;SDS011;3952;48.364;16.022;2023-12-20T13:20:47;2.10;;;1.90;;
7813;SDS011;3952;48.364;16.022;2023-12-20T13:23:14;2.20;;;1.80;;
7813;SDS011;3952;48.364;16.022;2023-12-20T13:25:44;1.83;;;1.73;;
7813;SDS011;3952;48.364;16.022;2023-12-20T13:28:12;2.00;;;1.80;;
7813;SDS011;3952;48.364;16.022;2023-12-20T13:30:40;1.70;;;1.60;;
7813;SDS011;3952;48.364;16.022;2023-12-20T13:33:07;1.63;;;1.53;;
7813;SDS011;3952;48.364;16.022;2023-12-20T13:35:35;1.63;;;1.60;;
7813;SDS011;3952;48.364;16.022;2023-12-20T13:38:02;1.77;;;1.67;;
7813;SDS011;3952;48.364;16.022;2023-12-20T13:40:30;1.53;;;1.43;;
7813;SDS011;3952;48.364;16.022;2023-12-20T13:42:58;1.77;;;1.67;;
7813;SDS011;3952;48.364;16.022;2023-12-20T13:45:25;1.63;;;1.53;;
7813;SDS011;3952;48.364;16.022;2023-12-20T13:47:53;1.80;;;1.70;;
7813;SDS011;3952;48.364;16.022;2023-12-20T13:50:20;2.47;;;1.80;;
7813;SDS011;3952;48.364;16.022;2023-12-20T13:52:47;2.17;;;1.97;;
7813;SDS011;3952;48.364;16.022;2023-12-20T13:55:15;2.53;;;1.70;;
7813;SDS011;3952;48.364;16.022;2023-12-20T13:57:42;2.23;;;1.37;;
7813;SDS011;3952;48.364;16.022;2023-12-20T14:00:12;1.97;;;1.57;;
7813;SDS011;3952;48.364;16.022;2023-12-20T14:02:40;1.47;;;1.47;;
7813;SDS011;3952;48.364;16.022;2023-12-20T14:05:08;1.57;;;1.40;;
7813;SDS011;3952;48.364;16.022;2023-12-20T14:07:35;1.77;;;1.77;;
7813;SDS011;3952;48.364;16.022;2023-12-20T14:10:03;1.60;;;1.50;;
7813;SDS011;3952;48.364;16.022;2023-12-20T14:12:31;1.63;;;1.53;;
7813;SDS011;3952;48.364;16.022;2023-12-20T14:15:01;1.63;;;1.53;;
7813;SDS011;3952;48.364;16.022;2023-12-20T14:17:30;1.47;;;1.37;;
7813;SDS011;3952;48.364;16.022;2023-12-20T14:19:57;1.80;;;1.43;;
7813;SDS011;3952;48.364;16.022;2023-12-20T14:22:25;1.50;;;1.50;;
7813;SDS011;3952;48.364;16.022;2023-12-20T14:24:54;2.20;;;2.00;;
7813;SDS011;3952;48.364;16.022;2023-12-20T14:27:22;2.27;;;2.07;;
7813;SDS011;3952;48.364;16.022;2023-12-20T14:29:49;2.03;;;1.87;;
7813;SDS011;3952;48.364;16.022;2023-12-20T14:32:17;2.23;;;1.80;;
7813;SDS011;3952;48.364;16.022;2023-12-20T14:34:45;1.50;;;1.40;;
7813;SDS011;3952;48.364;16.022;2023-12-20T14:37:13;2.00;;;1.80;;
7813;SDS011;3952;48.364;16.022;2023-12-20T14:39:41;1.97;;;1.87;;
7813;SDS011;3952;48.364;16.022;2023-12-20T14:42:08;2.07;;;1.90;;
7813;SDS011;3952;48.364;16.022;2023-12-20T14:44:38;2.33;;;2.13;;
7813;SDS011;3952;48.364;16.022;2023-12-20T14:47:06;2.20;;;2.00;;
7813;SDS011;3952;48.364;16.022;2023-12-20T14:49:34;2.80;;;1.90;;
7813;SDS011;3952;48.364;16.022;2023-12-20T14:52:04;3.30;;;1.93;;
7813;SDS011;3952;48.364;16.022;2023-12-20T14:54:31;3.33;;;2.10;;
7813;SDS011;3952;48.364;16.022;2023-12-20T14:56:59;1.93;;;1.73;;
7813;SDS011;3952;48.364;16.022;2023-12-20T14:59:26;2.07;;;1.90;;
7813;SDS011;3952;48.364;16.022;2023-12-20T15:01:53;3.13;;;1.93;;
7813;SDS011;3952;48.364;16.022;2023-12-20T15:04:20;4.23;;;1.80;;